createdAt,value
2019-03-10T00:00:32.019Z,11.20
2019-03-10T00:02:58.075Z,11.20
2019-03-10T00:05:24.088Z,11.10
2019-03-10T00:07:50.116Z,11.00
2019-03-10T00:10:16.137Z,10.90
2019-03-10T00:12:42.164Z,10.90
2019-03-10T00:15:10.080Z,10.80
2019-03-10T00:17:36.127Z,10.80
2019-03-10T00:20:04.444Z,10.70
2019-03-10T00:22:30.480Z,10.70
2019-03-10T00:24:56.501Z,10.70
2019-03-10T00:27:22.531Z,10.80
2019-03-10T00:29:48.547Z,10.80
2019-03-10T00:32:14.579Z,10.80
2019-03-10T00:34:40.599Z,10.80
2019-03-10T00:37:06.654Z,10.70
2019-03-10T00:39:42.667Z,10.80
2019-03-10T00:42:27.839Z,10.80
2019-03-10T00:45:20.709Z,10.80
2019-03-10T00:48:16.219Z,10.70
2019-03-10T00:51:01.012Z,10.70
2019-03-10T00:53:27.051Z,10.80
2019-03-10T00:55:53.068Z,10.80
2019-03-10T00:58:19.206Z,10.80
2019-03-10T01:00:45.211Z,10.80
2019-03-10T01:03:11.254Z,10.90
2019-03-10T01:05:37.271Z,10.90
2019-03-10T01:08:03.408Z,10.90
2019-03-10T01:10:29.519Z,10.90
2019-03-10T01:12:55.676Z,10.90
2019-03-10T01:15:21.699Z,10.90
2019-03-10T01:17:48.531Z,10.80
2019-03-10T01:20:15.447Z,10.90
2019-03-10T01:22:41.511Z,10.90
2019-03-10T01:25:10.315Z,10.90
2019-03-10T01:27:36.367Z,10.90
2019-03-10T01:30:08.946Z,10.90
2019-03-10T01:32:41.687Z,11.00
2019-03-10T01:35:16.831Z,11.00
2019-03-10T01:37:42.875Z,11.00
2019-03-10T01:40:08.888Z,11.00
2019-03-10T01:42:34.935Z,11.00
2019-03-10T01:45:00.952Z,11.00
2019-03-10T01:47:26.990Z,11.00
2019-03-10T01:49:53.111Z,11.00
2019-03-10T01:52:19.143Z,11.00
2019-03-10T01:54:45.155Z,11.10
2019-03-10T01:57:11.187Z,11.10
2019-03-10T01:59:37.203Z,11.10
2019-03-10T02:02:03.315Z,11.10
2019-03-10T02:04:29.367Z,11.10
2019-03-10T02:06:55.479Z,11.10
2019-03-10T02:09:21.602Z,11.10
2019-03-10T02:11:47.616Z,11.10
2019-03-10T02:14:13.663Z,11.00
2019-03-10T02:16:39.675Z,11.00
2019-03-10T02:19:05.707Z,11.00
2019-03-10T02:21:31.728Z,11.00
2019-03-10T02:23:57.762Z,11.00
2019-03-10T02:26:23.771Z,11.00
2019-03-10T02:28:49.811Z,11.00
2019-03-10T02:31:15.824Z,11.10
2019-03-10T02:33:41.854Z,11.20
2019-03-10T02:36:07.873Z,11.20
2019-03-10T02:38:33.924Z,11.20
2019-03-10T02:40:59.943Z,11.20
2019-03-10T02:43:26.355Z,11.20
2019-03-10T02:45:52.368Z,11.20
2019-03-10T02:48:18.395Z,11.20
2019-03-10T02:50:44.416Z,11.20
2019-03-10T02:53:10.439Z,11.20
2019-03-10T02:55:36.461Z,11.20
2019-03-10T02:58:02.587Z,11.20
2019-03-10T03:00:28.603Z,11.10
2019-03-10T03:02:54.629Z,11.00
2019-03-10T03:05:20.639Z,11.00
2019-03-10T03:07:46.685Z,11.00
2019-03-10T03:10:12.809Z,10.90
2019-03-10T03:12:39.017Z,10.80
2019-03-10T03:15:07.239Z,10.80
2019-03-10T03:17:33.261Z,10.80
2019-03-10T03:19:59.288Z,10.80
2019-03-10T03:22:25.299Z,10.70
2019-03-10T03:24:53.147Z,10.70
2019-03-10T03:27:19.226Z,10.70
2019-03-10T03:32:17.889Z,10.60
2019-03-10T03:34:43.920Z,10.60
2019-03-10T03:37:10.757Z,10.60
2019-03-10T03:39:36.880Z,10.50
2019-03-10T03:42:02.892Z,10.50
2019-03-10T03:44:28.923Z,10.50
2019-03-10T03:46:54.950Z,10.40
2019-03-10T03:49:20.971Z,10.40
2019-03-10T03:51:46.988Z,10.40
2019-03-10T03:54:13.016Z,10.40
2019-03-10T03:56:39.027Z,10.40
2019-03-10T03:59:05.062Z,10.40
2019-03-10T04:01:35.852Z,10.40
2019-03-10T04:04:01.881Z,10.40
2019-03-10T04:06:27.892Z,10.40
2019-03-10T04:08:53.919Z,10.30
2019-03-10T04:11:19.935Z,10.30
2019-03-10T04:13:46.002Z,10.20
2019-03-10T04:16:12.019Z,10.20
2019-03-10T04:18:38.023Z,10.30
2019-03-10T04:21:04.064Z,10.30
2019-03-10T04:23:30.078Z,10.30
2019-03-10T04:25:56.104Z,10.20
2019-03-10T04:28:22.116Z,10.20
2019-03-10T04:30:48.146Z,10.20
2019-03-10T04:33:14.151Z,10.20
2019-03-10T04:35:40.180Z,10.20
2019-03-10T04:38:06.212Z,10.20
2019-03-10T04:40:32.250Z,10.20
2019-03-10T04:42:58.273Z,10.30
2019-03-10T04:45:24.304Z,10.30
2019-03-10T04:47:50.318Z,10.30
2019-03-10T04:50:16.601Z,10.30
2019-03-10T04:52:42.656Z,10.20
2019-03-10T04:55:28.723Z,10.20
2019-03-10T04:57:56.639Z,10.20
2019-03-10T05:00:22.968Z,10.20
2019-03-10T05:02:48.981Z,10.20
2019-03-10T05:05:15.025Z,10.20
2019-03-10T05:07:41.035Z,10.20
2019-03-10T05:10:07.087Z,10.20
2019-03-10T05:12:33.095Z,10.20
2019-03-10T05:14:59.130Z,10.30
2019-03-10T05:17:25.140Z,10.30
2019-03-10T05:19:51.191Z,10.30
2019-03-10T05:22:17.206Z,10.30
2019-03-10T05:24:43.236Z,10.30
2019-03-10T05:27:09.242Z,10.30
2019-03-10T05:29:35.276Z,10.30
2019-03-10T05:32:01.299Z,10.30
2019-03-10T05:34:27.316Z,10.40
2019-03-10T05:36:53.344Z,10.40
2019-03-10T05:39:19.376Z,10.40
2019-03-10T05:41:45.407Z,10.30
2019-03-10T05:44:11.427Z,10.40
2019-03-10T05:46:37.451Z,10.40
2019-03-10T05:49:03.563Z,10.50
2019-03-10T05:51:29.596Z,10.50
2019-03-10T05:53:55.612Z,10.60
2019-03-10T05:56:21.643Z,10.60
2019-03-10T05:58:47.662Z,10.70
2019-03-10T06:01:13.701Z,10.70
2019-03-10T06:03:39.708Z,10.80
2019-03-10T06:06:05.740Z,10.80
2019-03-10T06:08:31.747Z,10.90
2019-03-10T06:10:57.775Z,10.90
2019-03-10T06:13:23.792Z,11.00
2019-03-10T06:15:49.833Z,11.00
2019-03-10T06:18:15.842Z,11.10
2019-03-10T06:20:41.880Z,11.10
2019-03-10T06:23:07.903Z,11.20
2019-03-10T06:25:35.108Z,11.30
2019-03-10T06:28:01.255Z,11.30
2019-03-10T06:30:27.284Z,11.30
2019-03-10T06:32:53.300Z,11.40
2019-03-10T06:35:19.319Z,11.50
2019-03-10T06:37:45.331Z,11.60
2019-03-10T06:40:11.360Z,11.60
2019-03-10T06:42:37.376Z,11.70
2019-03-10T06:45:05.085Z,11.80
2019-03-10T06:47:31.119Z,11.80
2019-03-10T06:49:57.147Z,11.80
2019-03-10T06:52:23.159Z,11.90
2019-03-10T06:54:49.171Z,11.90
2019-03-10T06:57:15.199Z,11.90
2019-03-10T06:59:41.211Z,11.90
2019-03-10T07:02:07.241Z,12.00
2019-03-10T07:04:33.251Z,12.00
2019-03-10T07:06:59.279Z,12.00
2019-03-10T07:09:25.288Z,12.00
2019-03-10T07:11:51.319Z,12.00
2019-03-10T07:14:17.343Z,12.00
2019-03-10T07:16:44.219Z,12.00
2019-03-10T07:19:10.231Z,12.00
2019-03-10T07:21:36.260Z,12.00
2019-03-10T07:24:02.275Z,12.00
2019-03-10T07:26:28.307Z,12.00
2019-03-10T07:28:56.229Z,12.00
2019-03-10T07:31:24.167Z,12.00
2019-03-10T07:34:07.183Z,12.00
2019-03-10T07:36:49.996Z,12.00
2019-03-10T07:39:23.439Z,12.00
2019-03-10T07:42:08.396Z,12.00
2019-03-10T07:44:42.123Z,12.10
2019-03-10T07:47:10.547Z,12.10
2019-03-10T07:49:41.231Z,12.20
2019-03-10T07:52:19.584Z,12.20
2019-03-10T07:54:38.979Z,12.30
2019-03-10T07:57:19.068Z,12.30
2019-03-10T07:59:46.983Z,12.30
2019-03-10T08:02:14.932Z,12.20
2019-03-10T08:04:57.601Z,12.20
2019-03-10T08:07:42.356Z,12.20
2019-03-10T08:10:10.277Z,12.30
2019-03-10T08:12:43.992Z,12.30
2019-03-10T08:15:14.712Z,12.30
2019-03-10T08:17:45.568Z,12.30
2019-03-10T08:20:19.103Z,12.40
2019-03-10T08:22:47.039Z,12.50
2019-03-10T08:25:31.499Z,12.60
2019-03-10T08:28:02.017Z,12.70
2019-03-10T08:30:29.249Z,12.70
2019-03-10T08:32:57.175Z,12.70
2019-03-10T08:35:37.243Z,12.70
2019-03-10T08:38:08.219Z,12.70
2019-03-10T08:40:36.134Z,12.90
2019-03-10T08:43:06.575Z,12.80
2019-03-10T08:45:50.979Z,12.80
2019-03-10T08:48:18.909Z,12.80
2019-03-10T08:50:52.566Z,12.70
2019-03-10T08:53:36.019Z,12.70
2019-03-10T08:56:09.467Z,12.70
2019-03-10T08:58:46.347Z,12.80
2019-03-10T09:01:19.977Z,12.80
2019-03-10T09:03:53.928Z,12.80
2019-03-10T09:06:38.551Z,12.80
2019-03-10T09:09:07.691Z,12.70
2019-03-10T09:11:41.660Z,12.60
2019-03-10T09:14:12.376Z,12.70
2019-03-10T09:16:43.216Z,12.80
2019-03-10T09:19:13.972Z,12.80
2019-03-10T09:22:00.234Z,12.90
2019-03-10T09:24:44.732Z,12.90
2019-03-10T09:27:28.694Z,13.10
2019-03-10T09:29:56.840Z,13.10
2019-03-10T09:32:30.551Z,13.10
2019-03-10T09:34:58.471Z,13.10
2019-03-10T09:37:26.408Z,13.20
2019-03-10T09:39:54.350Z,13.20
2019-03-10T09:42:38.695Z,13.10
2019-03-10T09:45:25.140Z,13.20
2019-03-10T09:47:53.081Z,13.20
2019-03-10T09:50:27.011Z,13.10
2019-03-10T09:52:55.020Z,13.00
2019-03-10T09:55:25.800Z,12.90
2019-03-10T09:57:59.495Z,12.70
2019-03-10T10:00:36.508Z,12.70
2019-03-10T10:03:04.451Z,12.70
2019-03-10T10:05:38.521Z,12.70
2019-03-10T10:08:12.587Z,12.60
2019-03-10T10:10:40.505Z,12.50
2019-03-10T10:13:23.600Z,12.50
2019-03-10T10:16:08.128Z,12.60
2019-03-10T10:18:41.880Z,12.60
2019-03-10T10:21:15.687Z,12.80
2019-03-10T10:23:58.707Z,12.70
2019-03-10T10:26:32.419Z,12.70
2019-03-10T10:29:06.160Z,12.70
2019-03-10T10:31:46.027Z,12.80
2019-03-10T10:34:14.063Z,12.90
2019-03-10T10:36:56.911Z,12.90
2019-03-10T10:39:42.948Z,12.80
2019-03-10T10:42:17.190Z,12.80
2019-03-10T10:45:02.975Z,13.00
2019-03-10T10:47:47.593Z,13.20
2019-03-10T10:50:18.690Z,13.40
2019-03-10T10:52:46.622Z,13.50
2019-03-10T10:55:14.663Z,13.50
2019-03-10T10:57:57.707Z,13.70
2019-03-10T11:00:25.751Z,13.70
2019-03-10T11:02:53.667Z,13.60
2019-03-10T11:05:27.713Z,13.40
2019-03-10T11:08:07.474Z,13.40
2019-03-10T11:10:50.465Z,13.50
2019-03-10T11:13:27.135Z,13.70
2019-03-10T11:16:04.150Z,13.90
2019-03-10T11:18:34.879Z,14.20
2019-03-10T11:21:05.937Z,14.20
2019-03-10T11:23:33.948Z,14.20
2019-03-10T11:26:11.011Z,14.30
2019-03-10T11:28:56.833Z,14.20
2019-03-10T11:31:33.813Z,14.00
2019-03-10T11:34:18.827Z,13.90
2019-03-10T11:37:03.430Z,14.00
2019-03-10T11:39:49.993Z,14.20
2019-03-10T11:42:23.503Z,14.60
2019-03-10T11:44:51.469Z,14.50
2019-03-10T11:47:31.540Z,14.50
2019-03-10T11:49:59.483Z,14.50
2019-03-10T11:52:27.391Z,14.60
2019-03-10T11:55:07.323Z,14.60
2019-03-10T11:57:50.275Z,14.70
2019-03-10T12:00:21.067Z,14.70
2019-03-10T12:02:52.029Z,14.80
2019-03-10T12:05:32.175Z,14.90
2019-03-10T12:08:14.963Z,14.80
2019-03-10T12:10:41.263Z,14.80
2019-03-10T12:13:07.287Z,14.80
2019-03-10T12:15:33.323Z,14.70
2019-03-10T12:17:59.355Z,14.60
2019-03-10T12:20:25.396Z,14.70
2019-03-10T12:22:51.415Z,14.80
2019-03-10T12:25:17.461Z,14.60
2019-03-10T12:27:43.480Z,14.50
2019-03-10T12:30:12.920Z,14.40
2019-03-10T12:32:38.935Z,14.50
2019-03-10T12:35:05.088Z,14.70
2019-03-10T12:37:31.091Z,14.80
2019-03-10T12:39:57.163Z,14.80
2019-03-10T12:42:23.172Z,14.80
2019-03-10T12:44:49.225Z,14.90
2019-03-10T12:47:15.263Z,15.00
2019-03-10T12:49:41.275Z,15.10
2019-03-10T12:52:07.324Z,14.90
2019-03-10T12:54:33.336Z,15.00
2019-03-10T12:56:59.435Z,14.90
2019-03-10T12:59:25.447Z,15.00
2019-03-10T13:01:51.538Z,15.10
2019-03-10T13:04:19.163Z,15.40
2019-03-10T13:06:45.491Z,15.40
2019-03-10T13:09:11.523Z,15.20
2019-03-10T13:11:37.555Z,15.10
2019-03-10T13:14:03.616Z,15.00
2019-03-10T13:16:29.724Z,15.10
2019-03-10T13:18:55.740Z,15.00
2019-03-10T13:21:21.821Z,15.00
2019-03-10T13:23:47.899Z,14.80
2019-03-10T13:26:13.940Z,15.00
2019-03-10T13:28:39.959Z,15.00
2019-03-10T13:31:05.993Z,15.00
2019-03-10T13:33:32.012Z,15.00
2019-03-10T13:35:58.039Z,15.00
2019-03-10T13:38:24.055Z,14.80
2019-03-10T13:40:50.151Z,14.80
2019-03-10T13:43:16.187Z,14.70
2019-03-10T13:45:42.221Z,14.80
2019-03-10T13:48:08.236Z,14.90
2019-03-10T13:50:34.276Z,14.50
2019-03-10T13:53:00.295Z,14.30
2019-03-10T13:55:26.317Z,14.00
2019-03-10T13:57:52.354Z,13.90
2019-03-10T14:00:23.555Z,14.00
2019-03-10T14:02:49.695Z,14.30
2019-03-10T14:05:15.711Z,14.20
2019-03-10T14:07:41.753Z,14.10
2019-03-10T14:10:10.620Z,14.30
2019-03-10T14:12:37.250Z,14.40
2019-03-10T14:15:07.142Z,14.50
2019-03-10T14:17:33.180Z,14.50
2019-03-10T14:19:59.211Z,14.40
2019-03-10T14:22:25.256Z,14.20
2019-03-10T14:24:51.259Z,14.10
2019-03-10T14:27:17.300Z,14.10
2019-03-10T14:29:43.306Z,13.80
2019-03-10T14:32:09.383Z,13.50
2019-03-10T14:34:35.395Z,13.50
2019-03-10T14:37:01.432Z,13.50
2019-03-10T14:39:27.467Z,13.20
2019-03-10T14:44:19.991Z,12.80
2019-03-10T14:46:46.156Z,12.80
2019-03-10T14:49:22.307Z,12.80
2019-03-10T14:51:41.244Z,12.80
2019-03-10T14:54:07.263Z,12.90
2019-03-10T14:56:33.316Z,13.00
2019-03-10T14:58:59.396Z,13.10
2019-03-10T15:01:25.519Z,13.00
2019-03-10T15:03:51.647Z,13.20
2019-03-10T15:06:17.756Z,13.10
2019-03-10T15:08:46.221Z,13.00
2019-03-10T15:11:11.695Z,13.00
2019-03-10T15:13:37.740Z,13.10
2019-03-10T15:16:03.931Z,13.20
2019-03-10T15:18:30.057Z,13.10
2019-03-10T15:20:56.079Z,13.00
2019-03-10T15:23:22.148Z,12.90
2019-03-10T15:25:48.438Z,12.90
2019-03-10T15:28:14.572Z,12.70
2019-03-10T15:30:40.604Z,12.80
2019-03-10T15:33:06.639Z,12.90
2019-03-10T15:35:34.801Z,12.90
2019-03-10T15:38:01.420Z,13.10
2019-03-10T15:40:27.448Z,13.20
2019-03-10T15:42:53.509Z,13.10
2019-03-10T15:45:19.512Z,13.20
2019-03-10T15:47:45.686Z,13.10
2019-03-10T15:50:24.259Z,12.90
2019-03-10T15:52:50.395Z,12.70
2019-03-10T15:55:16.409Z,12.70
2019-03-10T15:57:50.338Z,12.70
2019-03-10T16:00:22.083Z,12.70
2019-03-10T16:02:48.427Z,12.70
2019-03-10T16:05:14.671Z,12.80
2019-03-10T16:07:41.185Z,12.90
2019-03-10T16:10:09.833Z,13.00
2019-03-10T16:12:35.947Z,12.90
2019-03-10T16:15:04.564Z,12.80
2019-03-10T16:17:30.780Z,12.60
2019-03-10T16:19:56.835Z,12.40
2019-03-10T16:22:22.876Z,12.40
2019-03-10T16:24:48.896Z,12.30
2019-03-10T16:27:15.175Z,12.20
2019-03-10T16:29:41.192Z,12.10
2019-03-10T16:32:07.232Z,11.90
2019-03-10T16:34:33.262Z,11.70
2019-03-10T16:36:59.431Z,11.60
2019-03-10T16:39:26.471Z,11.30
2019-03-10T16:41:52.492Z,10.80
2019-03-10T16:44:18.751Z,10.40
2019-03-10T16:46:44.839Z,10.10
2019-03-10T16:49:11.952Z,9.80
2019-03-10T16:51:38.034Z,9.20
2019-03-10T16:54:04.154Z,8.80
2019-03-10T16:56:30.772Z,8.20
2019-03-10T16:58:56.967Z,8.00
2019-03-10T17:01:23.168Z,8.10
2019-03-10T17:03:49.207Z,8.40
2019-03-10T17:06:15.239Z,8.50
2019-03-10T17:08:41.279Z,8.50
2019-03-10T17:11:07.343Z,8.20
2019-03-10T17:13:33.430Z,8.00
2019-03-10T17:15:59.507Z,7.90
2019-03-10T17:18:25.553Z,7.90
2019-03-10T17:20:51.581Z,7.90
2019-03-10T17:23:17.625Z,7.80
2019-03-10T17:25:43.640Z,7.80
2019-03-10T17:28:09.734Z,7.80
2019-03-10T17:30:35.834Z,7.80
2019-03-10T17:33:01.976Z,7.80
2019-03-10T17:35:27.990Z,8.00
2019-03-10T17:37:54.196Z,8.10
2019-03-10T17:40:24.429Z,8.20
2019-03-10T17:42:50.788Z,8.30
2019-03-10T17:45:20.899Z,8.20
2019-03-10T17:47:46.935Z,8.20
2019-03-10T17:50:14.654Z,8.20
2019-03-10T17:52:40.836Z,8.10
2019-03-10T17:55:09.252Z,8.00
2019-03-10T17:57:35.423Z,8.10
2019-03-10T18:00:09.304Z,8.00
2019-03-10T18:02:35.324Z,8.00
2019-03-10T18:05:01.895Z,8.00
2019-03-10T18:07:27.918Z,8.00
2019-03-10T18:09:56.827Z,7.90
2019-03-10T18:12:22.846Z,7.80
2019-03-10T18:14:48.966Z,7.80
2019-03-10T18:17:15.024Z,7.90
2019-03-10T18:19:41.100Z,8.00
2019-03-10T18:22:07.115Z,8.00
2019-03-10T18:24:33.339Z,8.00
2019-03-10T18:26:59.930Z,7.90
2019-03-10T18:29:25.985Z,7.80
2019-03-10T18:31:52.007Z,7.80
2019-03-10T18:34:18.053Z,7.80
2019-03-10T18:36:44.294Z,7.80
2019-03-10T18:39:10.411Z,7.80
2019-03-10T18:41:36.424Z,7.80
2019-03-10T18:44:02.808Z,7.80
2019-03-10T18:46:28.981Z,7.70
2019-03-10T18:48:55.103Z,7.80
2019-03-10T18:51:21.117Z,7.70
2019-03-10T18:53:47.784Z,7.70
2019-03-10T18:56:13.788Z,7.70
2019-03-10T18:58:39.867Z,7.70
2019-03-10T19:01:05.880Z,7.70
2019-03-10T19:03:31.931Z,7.80
2019-03-10T19:05:58.032Z,7.80
2019-03-10T19:08:24.072Z,7.80
2019-03-10T19:10:50.088Z,7.80
2019-03-10T19:13:16.140Z,7.80
2019-03-10T19:15:42.325Z,7.90
2019-03-10T19:18:08.421Z,8.00
2019-03-10T19:20:34.447Z,8.00
2019-03-10T19:23:00.601Z,8.00
2019-03-10T19:25:26.718Z,8.10
2019-03-10T19:27:52.920Z,8.20
2019-03-10T19:30:22.955Z,8.20
2019-03-10T19:32:49.071Z,8.20
2019-03-10T19:35:15.444Z,8.20
2019-03-10T19:37:41.511Z,8.10
2019-03-10T19:40:10.704Z,8.10
2019-03-10T19:42:36.791Z,7.90
2019-03-10T19:45:05.581Z,7.80
2019-03-10T19:47:31.587Z,7.80
2019-03-10T19:49:57.624Z,7.80
2019-03-10T19:52:23.637Z,7.80
2019-03-10T19:54:49.928Z,7.70
2019-03-10T19:57:15.927Z,7.70
2019-03-10T19:59:41.971Z,7.60
2019-03-10T20:02:08.066Z,7.50
2019-03-10T20:04:34.154Z,7.50
2019-03-10T20:07:00.248Z,7.40
2019-03-10T20:09:26.287Z,7.30
2019-03-10T20:11:52.303Z,7.40
2019-03-10T20:14:18.337Z,7.40
2019-03-10T20:16:44.517Z,7.40
2019-03-10T20:19:10.652Z,7.40
2019-03-10T20:21:36.663Z,7.30
2019-03-10T20:24:02.679Z,7.30
2019-03-10T20:26:28.756Z,7.30
2019-03-10T20:28:54.839Z,7.30
2019-03-10T20:31:20.880Z,7.30
2019-03-10T20:33:46.940Z,7.20
2019-03-10T20:36:13.040Z,7.10
2019-03-10T20:38:39.110Z,7.10
2019-03-10T20:41:05.207Z,7.10
2019-03-10T20:43:31.258Z,7.10
2019-03-10T20:45:57.317Z,7.00
2019-03-10T20:48:23.332Z,6.90
2019-03-10T20:50:49.455Z,6.90
2019-03-10T20:53:15.467Z,6.90
2019-03-10T20:55:41.506Z,6.80
2019-03-10T20:58:07.512Z,6.70
2019-03-10T21:00:33.642Z,6.70
2019-03-10T21:02:59.674Z,6.70
2019-03-10T21:05:25.789Z,6.60
2019-03-10T21:07:51.917Z,6.60
2019-03-10T21:10:26.111Z,6.60
2019-03-10T21:12:52.123Z,6.50
2019-03-10T21:15:19.495Z,6.50
2019-03-10T21:17:45.542Z,6.40
2019-03-10T21:20:16.211Z,6.40
2019-03-10T21:22:42.215Z,6.40
2019-03-10T21:25:20.782Z,6.40
2019-03-10T21:27:46.815Z,6.40
2019-03-10T21:30:18.728Z,6.40
2019-03-10T21:32:44.743Z,6.40
2019-03-10T21:35:17.664Z,6.30
2019-03-10T21:37:38.695Z,6.30
2019-03-10T21:40:08.532Z,6.30
2019-03-10T21:42:35.599Z,6.30
2019-03-10T21:45:02.131Z,6.30
2019-03-10T21:47:28.147Z,6.30
2019-03-10T21:49:54.159Z,6.30
2019-03-10T21:52:20.298Z,6.30
2019-03-10T21:54:46.296Z,6.30
2019-03-10T21:57:12.339Z,6.20
2019-03-10T21:59:38.336Z,6.20
2019-03-10T22:02:04.363Z,6.30
2019-03-10T22:04:30.476Z,6.30
2019-03-10T22:06:56.566Z,6.20
2019-03-10T22:09:22.575Z,6.20
2019-03-10T22:11:49.017Z,6.20
2019-03-10T22:14:15.634Z,6.10
2019-03-10T22:16:42.185Z,6.10
2019-03-10T22:19:08.721Z,6.10
2019-03-10T22:21:35.566Z,6.10
2019-03-10T22:24:03.254Z,6.10
2019-03-10T22:26:30.117Z,6.10
2019-03-10T22:28:56.425Z,6.10
2019-03-10T22:31:23.901Z,6.00
2019-03-10T22:33:50.859Z,6.00
2019-03-10T22:36:17.238Z,6.10
2019-03-10T22:38:43.940Z,6.00
2019-03-10T22:41:10.242Z,6.00
2019-03-10T22:43:39.351Z,6.00
2019-03-10T22:46:05.883Z,6.10
2019-03-10T22:48:32.579Z,6.00
2019-03-10T22:50:59.122Z,6.00
2019-03-10T22:53:25.560Z,5.90
2019-03-10T22:55:52.243Z,6.00
2019-03-10T22:58:18.951Z,5.90
2019-03-10T23:00:50.115Z,6.00
2019-03-10T23:03:16.795Z,6.10
2019-03-10T23:05:43.591Z,6.10
2019-03-10T23:08:09.696Z,6.00
2019-03-10T23:10:35.743Z,6.00
2019-03-10T23:13:01.847Z,6.10
2019-03-10T23:15:27.855Z,6.00
2019-03-10T23:17:53.907Z,5.90
2019-03-10T23:20:19.926Z,5.90
2019-03-10T23:22:45.955Z,5.90
2019-03-10T23:25:12.175Z,5.80
2019-03-10T23:27:38.337Z,5.90
2019-03-10T23:30:10.791Z,5.90
2019-03-10T23:32:37.136Z,5.80
2019-03-10T23:35:04.551Z,5.80
2019-03-10T23:37:30.579Z,5.80
2019-03-10T23:39:56.599Z,5.80
2019-03-10T23:42:22.623Z,5.80
2019-03-10T23:44:48.657Z,5.80
2019-03-10T23:47:14.732Z,5.70
2019-03-10T23:49:40.743Z,5.70
2019-03-10T23:52:06.773Z,5.70
2019-03-10T23:54:32.784Z,5.70
2019-03-10T23:56:58.811Z,5.70
2019-03-10T23:59:24.827Z,5.70
